Pickle Lake, Canada
Current Conditions -  °F | °C
As of 8:00 PM on Wednesday 28 Jan 2015 (Local Time) from CYPL Reporting Station
Moderate Snow Moderate Snow  
Wind Chill: -4°   Ceiling: 500
Heat Index: 10°   Visibility: 0.5mi
Dew Point:   Wind: 12mph
Humidity: 85%   Direction: 50°NE
Pressure: 29.9"   Gusts: 22mph
Location:  51.47°N, 90.18°W
Report Text: CYPL 290200Z 05010G19KT 010V080 1/2SM SN DRSN VV005 M12/M14 A2990 RMK SN8 LAST OBS/NEXT 291100Z SLP154
Loading
Personal Weather Stations






























Interactive Weather Map New forecast layout! Learn more

10-Day Weather Forecast

Advertisements
Track Severe Weather on mobile